Time,TemperatureF,DewpointF,PressureIn,WindDirection,WindDirectionDegrees,WindSpeedMPH,WindSpeedGustMPH,Humidity,HourlyPrecipIn,Conditions,Clouds,dailyrainin,SoftwareType,DateUTC
2013-05-05 00:00:00,40.1,29.3,30.32,North,352,0.0,0.0,65,0.00,,,0.00,WeatherDisplay:10.37,2013-05-05 04:00:00,
2013-05-05 00:10:00,39.8,29.3,30.32,North,352,0.0,0.0,66,0.00,,,0.00,WeatherDisplay:10.37,2013-05-05 04:10:00,
2013-05-05 00:20:00,39.7,29.7,30.32,North,352,0.0,0.0,67,0.00,,,0.00,WeatherDisplay:10.37,2013-05-05 04:20:00,
2013-05-05 00:30:00,39.7,30.0,30.32,North,352,0.0,0.0,68,0.00,,,0.00,WeatherDisplay:10.37,2013-05-05 04:30:00,
2013-05-05 00:40:00,39.2,29.2,30.32,North,352,0.0,0.0,67,0.00,,,0.00,WeatherDisplay:10.37,2013-05-05 04:40:00,
2013-05-05 00:50:00,38.9,29.2,30.32,North,352,0.0,0.0,68,0.00,,,0.00,WeatherDisplay:10.37,2013-05-05 04:50:00,
2013-05-05 01:00:00,38.7,29.0,30.32,North,352,0.0,0.0,68,0.00,,,0.00,WeatherDisplay:10.37,2013-05-05 05:00:00,
2013-05-05 01:10:00,38.7,29.0,30.32,North,352,0.0,0.0,68,0.00,,,0.00,WeatherDisplay:10.37,2013-05-05 05:10:00,
2013-05-05 01:20:00,38.0,28.7,30.32,North,352,0.0,0.0,69,0.00,,,0.00,WeatherDisplay:10.37,2013-05-05 05:20:00,
2013-05-05 01:30:00,38.1,29.2,30.31,North,352,0.0,0.0,70,0.00,,,0.00,WeatherDisplay:10.37,2013-05-05 05:30:00,
2013-05-05 01:40:00,37.6,28.3,30.31,North,352,0.0,0.0,69,0.00,,,0.00,WeatherDisplay:10.37,2013-05-05 05:40:00,
2013-05-05 01:50:00,37.4,28.5,30.31,North,351,0.0,0.0,70,0.00,,,0.00,WeatherDisplay:10.37,2013-05-05 05:50:00,
2013-05-05 02:00:00,37.0,28.2,30.30,North,351,0.0,0.0,70,0.00,,,0.00,WeatherDisplay:10.37,2013-05-05 06:00:00,
2013-05-05 02:10:00,37.0,28.5,30.30,North,352,0.0,0.0,71,0.00,,,0.00,WeatherDisplay:10.37,2013-05-05 06:10:00,
2013-05-05 02:20:00,36.9,28.3,30.30,North,352,0.0,0.0,71,0.00,,,0.00,WeatherDisplay:10.37,2013-05-05 06:20:00,
2013-05-05 02:30:00,36.9,28.3,30.30,North,352,0.0,0.0,71,0.00,,,0.00,WeatherDisplay:10.37,2013-05-05 06:30:00,
2013-05-05 02:40:00,36.9,29.0,30.30,North,352,0.0,0.0,73,0.00,,,0.00,WeatherDisplay:10.37,2013-05-05 06:40:00,
2013-05-05 02:50:00,36.9,28.7,30.30,North,352,0.0,0.0,72,0.00,,,0.00,WeatherDisplay:10.37,2013-05-05 06:50:00,
2013-05-05 03:00:00,36.3,28.2,30.30,North,352,0.0,0.0,72,0.00,,,0.00,WeatherDisplay:10.37,2013-05-05 07:00:00,
2013-05-05 03:10:00,35.8,27.6,30.30,North,352,0.0,0.0,72,0.00,,,0.00,WeatherDisplay:10.37,2013-05-05 07:10:00,
2013-05-05 03:20:00,35.6,27.8,30.30,North,352,0.0,0.0,73,0.00,,,0.00,WeatherDisplay:10.37,2013-05-05 07:20:00,
2013-05-05 03:30:00,35.6,27.8,30.30,North,352,0.0,0.0,73,0.00,,,0.00,WeatherDisplay:10.37,2013-05-05 07:30:00,
2013-05-05 03:40:00,35.8,28.3,30.28,North,352,0.0,0.0,74,0.00,,,0.00,WeatherDisplay:10.37,2013-05-05 07:40:00,
2013-05-05 03:50:00,35.4,27.6,30.30,North,352,0.0,0.0,73,0.00,,,0.00,WeatherDisplay:10.37,2013-05-05 07:50:00,
2013-05-05 04:00:00,35.2,27.8,30.30,North,352,0.0,0.0,74,0.00,,,0.00,WeatherDisplay:10.37,2013-05-05 08:00:00,
2013-05-05 04:10:00,35.2,27.8,30.30,North,352,0.0,0.0,74,0.00,,,0.00,WeatherDisplay:10.37,2013-05-05 08:10:00,
2013-05-05 04:20:00,35.1,27.6,30.30,North,352,0.0,0.0,74,0.00,,,0.00,WeatherDisplay:10.37,2013-05-05 08:20:00,
2013-05-05 04:30:00,34.7,27.3,30.29,North,352,0.0,0.0,74,0.00,,,0.00,WeatherDisplay:10.37,2013-05-05 08:30:00,
2013-05-05 04:40:00,34.7,27.3,30.28,North,352,0.0,0.0,74,0.00,,,0.00,WeatherDisplay:10.37,2013-05-05 08:40:00,
2013-05-05 04:50:00,34.1,26.7,30.28,North,352,0.0,0.0,74,0.00,,,0.00,WeatherDisplay:10.37,2013-05-05 08:50:00,
2013-05-05 05:00:00,33.8,26.4,30.28,North,352,0.0,0.0,74,0.00,,,0.00,WeatherDisplay:10.37,2013-05-05 09:00:00,
2013-05-05 05:10:00,33.4,26.4,30.29,ESE,115,0.0,0.0,75,0.00,,,0.00,WeatherDisplay:10.37,2013-05-05 09:10:00,
2013-05-05 05:20:00,33.4,26.4,30.28,SE,128,0.0,0.0,75,0.00,,,0.00,WeatherDisplay:10.37,2013-05-05 09:20:00,
2013-05-05 05:30:00,32.9,25.8,30.29,SE,128,0.0,0.0,75,0.00,,,0.00,WeatherDisplay:10.37,2013-05-05 09:30:00,
2013-05-05 05:40:00,32.7,25.7,30.28,SE,128,0.0,0.0,75,0.00,,,0.00,WeatherDisplay:10.37,2013-05-05 09:40:00,
2013-05-05 05:50:00,33.3,26.5,30.28,SE,128,0.0,0.0,76,0.00,,,0.00,WeatherDisplay:10.37,2013-05-05 09:50:00,
2013-05-05 05:59:00,33.3,26.5,30.28,SE,128,0.0,0.0,76,0.00,,,0.00,WeatherDisplay:10.37,2013-05-05 09:59:00,
2013-05-05 06:10:00,33.3,26.5,30.28,SE,128,0.0,0.0,76,0.00,,,0.00,WeatherDisplay:10.37,2013-05-05 10:10:00,
2013-05-05 06:20:00,33.8,27.0,30.30,SE,128,0.0,0.0,76,0.00,,,0.00,WeatherDisplay:10.37,2013-05-05 10:20:00,
2013-05-05 06:30:00,34.0,27.6,30.29,SE,128,0.0,0.0,77,0.00,,,0.00,WeatherDisplay:10.37,2013-05-05 10:30:00,
2013-05-05 06:40:00,34.8,28.4,30.28,SE,128,0.0,0.0,77,0.00,,,0.00,WeatherDisplay:10.37,2013-05-05 10:40:00,
2013-05-05 06:50:00,37.3,30.7,30.30,SE,128,0.0,0.0,77,0.00,,,0.00,WeatherDisplay:10.37,2013-05-05 10:50:00,
2013-05-05 06:59:00,39.9,33.0,30.30,SE,128,0.0,0.0,76,0.00,,,0.00,WeatherDisplay:10.37,2013-05-05 10:59:00,
2013-05-05 07:10:00,42.4,35.1,30.30,SE,128,0.0,0.0,75,0.00,,,0.00,WeatherDisplay:10.37,2013-05-05 11:10:00,
2013-05-05 07:20:00,44.1,36.3,30.30,SE,126,0.0,0.0,74,0.00,,,0.00,WeatherDisplay:10.37,2013-05-05 11:20:00,
2013-05-05 07:30:00,44.1,35.6,30.30,ESE,115,0.0,0.0,72,0.00,,,0.00,WeatherDisplay:10.37,2013-05-05 11:30:00,
2013-05-05 07:40:00,43.7,35.3,30.30,SE,128,0.0,0.0,72,0.00,,,0.00,WeatherDisplay:10.37,2013-05-05 11:40:00,
2013-05-05 07:50:00,43.3,34.6,30.30,SE,146,0.0,0.0,71,0.00,,,0.00,WeatherDisplay:10.37,2013-05-05 11:50:00,
2013-05-05 08:00:00,43.3,35.3,30.30,West,271,0.0,0.0,73,0.00,,,0.00,WeatherDisplay:10.37,2013-05-05 12:00:00,
2013-05-05 08:10:00,44.0,35.9,30.31,NW,308,0.0,0.0,73,0.00,,,0.00,WeatherDisplay:10.37,2013-05-05 12:10:00,
2013-05-05 08:20:00,44.2,36.1,30.30,NW,319,0.0,0.0,73,0.00,,,0.00,WeatherDisplay:10.37,2013-05-05 12:20:00,
2013-05-05 08:30:00,45.0,36.9,30.30,North,360,0.0,0.0,73,0.00,,,0.00,WeatherDisplay:10.37,2013-05-05 12:30:00,
2013-05-05 08:40:00,45.8,37.0,30.30,WNW,288,0.0,0.0,71,0.00,,,0.00,WeatherDisplay:10.37,2013-05-05 12:40:00,
2013-05-05 08:50:00,46.4,37.1,30.31,NNW,330,0.0,0.0,70,0.00,,,0.00,WeatherDisplay:10.37,2013-05-05 12:50:00,
2013-05-05 08:59:00,46.8,37.1,30.31,NW,320,0.0,0.0,69,0.00,,,0.00,WeatherDisplay:10.37,2013-05-05 12:59:00,
2013-05-05 09:10:00,47.3,37.3,30.31,NE,46,0.0,0.0,68,0.00,,,0.00,WeatherDisplay:10.37,2013-05-05 13:10:00,
2013-05-05 09:20:00,48.0,37.6,30.30,North,5,0.0,0.0,67,0.00,,,0.00,WeatherDisplay:10.37,2013-05-05 13:20:00,
2013-05-05 09:30:00,48.4,36.7,30.30,South,169,0.0,0.0,64,0.00,,,0.00,WeatherDisplay:10.37,2013-05-05 13:30:00,
2013-05-05 09:40:00,48.8,37.6,30.30,NNE,27,0.0,0.0,65,0.00,,,0.00,WeatherDisplay:10.37,2013-05-05 13:40:00,
2013-05-05 09:50:00,50.0,37.9,30.30,East,85,0.0,0.0,63,0.00,,,0.00,WeatherDisplay:10.37,2013-05-05 13:50:00,
2013-05-05 10:00:00,50.7,38.5,30.30,East,80,0.0,0.0,63,0.00,,,0.00,WeatherDisplay:10.37,2013-05-05 14:00:00,
2013-05-05 10:10:00,51.0,38.1,30.30,WSW,255,0.0,0.0,61,0.00,,,0.00,WeatherDisplay:10.37,2013-05-05 14:10:00,
2013-05-05 10:20:00,51.3,37.8,30.30,NW,313,0.0,0.0,60,0.00,,,0.00,WeatherDisplay:10.37,2013-05-05 14:20:00,
2013-05-05 10:30:00,51.9,38.4,30.30,NNE,33,0.0,0.0,60,0.00,,,0.00,WeatherDisplay:10.37,2013-05-05 14:30:00,
2013-05-05 10:40:00,52.7,38.8,30.30,NNW,337,0.0,0.0,59,0.00,,,0.00,WeatherDisplay:10.37,2013-05-05 14:40:00,
2013-05-05 10:50:00,53.1,39.1,30.30,NNE,29,0.0,0.0,59,0.00,,,0.00,WeatherDisplay:10.37,2013-05-05 14:50:00,
2013-05-05 10:59:00,53.8,39.8,30.30,East,88,1.0,0.0,59,0.00,,,0.00,WeatherDisplay:10.37,2013-05-05 14:59:00,
2013-05-05 11:10:00,54.0,39.1,30.30,ESE,105,0.0,0.0,57,0.00,,,0.00,WeatherDisplay:10.37,2013-05-05 15:10:00,
2013-05-05 11:20:00,54.1,38.3,30.30,NE,54,0.0,0.0,55,0.00,,,0.00,WeatherDisplay:10.37,2013-05-05 15:20:00,
2013-05-05 11:30:00,54.5,37.7,30.30,SW,224,1.0,0.0,53,0.00,,,0.00,WeatherDisplay:10.37,2013-05-05 15:30:00,
2013-05-05 11:40:00,55.0,38.7,30.30,East,92,1.0,0.0,54,0.00,,,0.00,WeatherDisplay:10.37,2013-05-05 15:40:00,
2013-05-05 11:50:00,55.4,38.1,30.28,SE,131,0.0,0.0,52,0.00,,,0.00,WeatherDisplay:10.37,2013-05-05 15:50:00,
2013-05-05 11:59:00,55.9,38.6,30.28,NNE,23,0.0,0.0,52,0.00,,,0.00,WeatherDisplay:10.37,2013-05-05 15:59:00,
2013-05-05 12:10:00,56.6,38.6,30.28,North,11,0.0,0.0,51,0.00,,,0.00,WeatherDisplay:10.37,2013-05-05 16:10:00,
2013-05-05 12:20:00,56.8,38.9,30.27,NE,45,0.0,0.0,51,0.00,,,0.00,WeatherDisplay:10.37,2013-05-05 16:20:00,
2013-05-05 12:30:00,57.1,38.1,30.27,WSW,239,0.0,0.0,49,0.00,,,0.00,WeatherDisplay:10.37,2013-05-05 16:30:00,
2013-05-05 12:40:00,57.6,39.0,30.27,NNE,23,3.0,0.0,50,0.00,,,0.00,WeatherDisplay:10.37,2013-05-05 16:40:00,
2013-05-05 12:50:00,58.1,39.0,30.27,NNE,22,1.0,0.0,49,0.00,,,0.00,WeatherDisplay:10.37,2013-05-05 16:50:00,
2013-05-05 12:59:00,58.3,39.2,30.27,NNW,337,0.0,0.0,49,0.00,,,0.00,WeatherDisplay:10.37,2013-05-05 16:59:00,
2013-05-05 13:10:00,58.5,39.4,30.26,NE,38,0.0,0.0,49,0.00,,,0.00,WeatherDisplay:10.37,2013-05-05 17:10:00,
2013-05-05 13:20:00,59.0,39.8,30.26,East,95,2.0,0.0,49,0.00,,,0.00,WeatherDisplay:10.37,2013-05-05 17:20:00,
2013-05-05 13:30:00,59.9,40.7,30.26,NE,47,0.0,0.0,49,0.00,,,0.00,WeatherDisplay:10.37,2013-05-05 17:30:00,
2013-05-05 13:40:00,59.7,39.4,30.26,NNE,20,0.0,0.0,47,0.00,,,0.00,WeatherDisplay:10.37,2013-05-05 17:40:00,
2013-05-05 13:50:00,59.7,39.4,30.26,East,92,2.0,0.0,47,0.00,,,0.00,WeatherDisplay:10.37,2013-05-05 17:50:00,
2013-05-05 13:59:00,59.9,38.5,30.25,SE,126,0.0,0.0,45,0.00,,,0.00,WeatherDisplay:10.37,2013-05-05 17:59:00,
2013-05-05 14:10:00,59.9,39.6,30.25,SE,131,1.0,0.0,47,0.00,,,0.00,WeatherDisplay:10.37,2013-05-05 18:10:00,
2013-05-05 14:20:00,60.2,39.9,30.25,SE,128,2.0,0.0,47,0.00,,,0.00,WeatherDisplay:10.37,2013-05-05 18:20:00,
2013-05-05 14:30:00,61.0,40.6,30.25,ESE,120,1.0,0.0,47,0.00,,,0.00,WeatherDisplay:10.37,2013-05-05 18:30:00,
2013-05-05 14:40:00,61.3,40.9,30.25,SE,128,0.0,0.0,47,0.00,,,0.00,WeatherDisplay:10.37,2013-05-05 18:40:00,
2013-05-05 14:50:00,61.6,41.2,30.25,SE,128,0.0,0.0,47,0.00,,,0.00,WeatherDisplay:10.37,2013-05-05 18:50:00,
2013-05-05 14:59:00,61.7,39.6,30.25,ESE,121,1.0,0.0,44,0.00,,,0.00,WeatherDisplay:10.37,2013-05-05 18:59:00,
2013-05-05 15:10:00,61.3,38.6,30.25,SE,128,0.0,0.0,43,0.00,,,0.00,WeatherDisplay:10.37,2013-05-05 19:10:00,
2013-05-05 15:20:00,61.6,40.1,30.24,ESE,119,0.0,0.0,45,0.00,,,0.00,WeatherDisplay:10.37,2013-05-05 19:20:00,
2013-05-05 15:30:00,61.7,39.0,30.25,SE,124,1.0,0.0,43,0.00,,,0.00,WeatherDisplay:10.37,2013-05-05 19:30:00,
2013-05-05 15:40:00,61.9,39.2,30.25,East,85,0.0,0.0,43,0.00,,,0.00,WeatherDisplay:10.37,2013-05-05 19:40:00,
2013-05-05 15:50:00,62.2,40.6,30.25,East,96,1.0,0.0,45,0.00,,,0.00,WeatherDisplay:10.37,2013-05-05 19:50:00,
2013-05-05 15:59:00,62.2,40.6,30.23,NE,49,1.0,0.0,45,0.00,,,0.00,WeatherDisplay:10.37,2013-05-05 19:59:00,
2013-05-05 16:10:00,62.2,39.5,30.25,East,85,0.0,0.0,43,0.00,,,0.00,WeatherDisplay:10.37,2013-05-05 20:10:00,
2013-05-05 16:20:00,62.2,40.6,30.23,East,85,2.0,0.0,45,0.00,,,0.00,WeatherDisplay:10.37,2013-05-05 20:20:00,
2013-05-05 16:30:00,62.2,40.6,30.23,ESE,123,0.0,0.0,45,0.00,,,0.00,WeatherDisplay:10.37,2013-05-05 20:30:00,
2013-05-05 16:40:00,62.6,40.9,30.23,ESE,117,5.0,0.0,45,0.00,,,0.00,WeatherDisplay:10.37,2013-05-05 20:40:00,
2013-05-05 16:50:00,62.6,40.4,30.23,SE,126,0.0,0.0,44,0.00,,,0.00,WeatherDisplay:10.37,2013-05-05 20:50:00,
2013-05-05 16:59:00,63.0,40.7,30.23,SE,128,2.0,0.0,44,0.00,,,0.00,WeatherDisplay:10.37,2013-05-05 20:59:00,
2013-05-05 17:10:00,69.0,43.7,30.23,SE,128,5.0,0.0,40,0.00,,,0.00,WeatherDisplay:10.37,2013-05-05 21:10:00,
2013-05-05 17:20:00,75.2,46.4,30.23,SE,128,1.0,0.0,36,0.00,,,0.00,WeatherDisplay:10.37,2013-05-05 21:20:00,
2013-05-05 17:30:00,78.6,47.1,30.23,SE,128,1.0,0.0,33,0.00,,,0.00,WeatherDisplay:10.37,2013-05-05 21:30:00,
2013-05-05 17:40:00,79.6,48.0,30.23,SE,128,2.0,0.0,33,0.00,,,0.00,WeatherDisplay:10.37,2013-05-05 21:40:00,
2013-05-05 17:50:00,81.0,47.5,30.23,SE,128,0.0,0.0,31,0.00,,,0.00,WeatherDisplay:10.37,2013-05-05 21:50:00,
2013-05-05 17:59:00,80.6,47.2,30.25,SE,128,1.0,0.0,31,0.00,,,0.00,WeatherDisplay:10.37,2013-05-05 21:59:00,
2013-05-05 18:10:00,79.6,46.3,30.23,SE,128,2.0,0.0,31,0.00,,,0.00,WeatherDisplay:10.37,2013-05-05 22:10:00,
2013-05-05 18:20:00,77.4,45.2,30.23,SE,128,0.0,0.0,32,0.00,,,0.00,WeatherDisplay:10.37,2013-05-05 22:20:00,
2013-05-05 18:30:00,71.8,41.9,30.23,SE,128,0.0,0.0,34,0.00,,,0.00,WeatherDisplay:10.37,2013-05-05 22:30:00,
2013-05-05 18:40:00,67.1,40.6,30.25,ESE,118,0.0,0.0,38,0.00,,,0.00,WeatherDisplay:10.37,2013-05-05 22:40:00,
2013-05-05 18:50:00,63.6,38.8,30.25,NE,39,0.0,0.0,40,0.00,,,0.00,WeatherDisplay:10.37,2013-05-05 22:50:00,
2013-05-05 18:59:00,61.2,37.9,30.25,East,83,1.0,0.0,42,0.00,,,0.00,WeatherDisplay:10.37,2013-05-05 22:59:00,
2013-05-05 19:10:00,59.4,37.5,30.25,NE,41,0.0,0.0,44,0.00,,,0.00,WeatherDisplay:10.37,2013-05-05 23:10:00,
2013-05-05 19:20:00,58.5,37.2,30.25,East,79,0.0,0.0,45,0.00,,,0.00,WeatherDisplay:10.37,2013-05-05 23:20:00,
2013-05-05 19:30:00,57.6,36.9,30.25,East,82,0.0,0.0,46,0.00,,,0.00,WeatherDisplay:10.37,2013-05-05 23:30:00,
2013-05-05 19:40:00,56.7,36.1,30.25,East,82,0.0,0.0,46,0.00,,,0.00,WeatherDisplay:10.37,2013-05-05 23:40:00,
2013-05-05 19:50:00,55.8,35.8,30.25,East,85,0.0,0.0,47,0.00,,,0.00,WeatherDisplay:10.37,2013-05-05 23:50:00,
2013-05-05 19:59:00,55.0,35.7,30.25,East,99,0.0,0.0,48,0.00,,,0.00,WeatherDisplay:10.37,2013-05-05 23:59:00,
2013-05-05 20:10:00,54.0,35.2,30.25,ESE,104,0.0,0.0,49,0.00,,,0.00,WeatherDisplay:10.37,2013-05-06 00:10:00,
2013-05-05 20:20:00,53.1,34.9,30.25,East,80,0.0,0.0,50,0.00,,,0.00,WeatherDisplay:10.37,2013-05-06 00:20:00,
2013-05-05 20:30:00,52.3,34.7,30.25,East,86,0.0,0.0,51,0.00,,,0.00,WeatherDisplay:10.37,2013-05-06 00:30:00,
2013-05-05 20:40:00,51.4,34.4,30.25,East,97,0.0,0.0,52,0.00,,,0.00,WeatherDisplay:10.37,2013-05-06 00:40:00,
2013-05-05 20:50:00,50.7,34.2,30.25,East,90,2.0,0.0,53,0.00,,,0.00,WeatherDisplay:10.37,2013-05-06 00:50:00,
2013-05-05 20:59:00,50.2,34.6,30.26,East,92,0.0,0.0,55,0.00,,,0.00,WeatherDisplay:10.37,2013-05-06 00:59:00,
2013-05-05 21:10:00,49.6,34.6,30.26,East,95,0.0,0.0,56,0.00,,,0.00,WeatherDisplay:10.37,2013-05-06 01:10:00,
2013-05-05 21:20:00,49.1,34.1,30.26,East,79,0.0,0.0,56,0.00,,,0.00,WeatherDisplay:10.37,2013-05-06 01:20:00,
2013-05-05 21:30:00,48.7,33.7,30.26,East,88,0.0,0.0,56,0.00,,,0.00,WeatherDisplay:10.37,2013-05-06 01:30:00,
2013-05-05 21:40:00,48.2,33.7,30.26,ENE,63,0.0,0.0,57,0.00,,,0.00,WeatherDisplay:10.37,2013-05-06 01:40:00,
2013-05-05 21:50:00,47.8,33.8,30.26,East,82,0.0,0.0,58,0.00,,,0.00,WeatherDisplay:10.37,2013-05-06 01:50:00,
2013-05-05 21:59:00,47.3,33.3,30.26,ESE,102,0.0,0.0,58,0.00,,,0.00,WeatherDisplay:10.37,2013-05-06 01:59:00,
2013-05-05 22:10:00,46.8,33.2,30.26,East,85,0.0,0.0,59,0.00,,,0.00,WeatherDisplay:10.37,2013-05-06 02:10:00,
2013-05-05 22:20:00,46.4,33.3,30.26,ENE,70,0.0,0.0,60,0.00,,,0.00,WeatherDisplay:10.37,2013-05-06 02:20:00,
2013-05-05 22:30:00,46.0,32.9,30.26,East,82,0.0,0.0,60,0.00,,,0.00,WeatherDisplay:10.37,2013-05-06 02:30:00,
2013-05-05 22:40:00,45.5,32.8,30.26,East,82,0.0,0.0,61,0.00,,,0.00,WeatherDisplay:10.37,2013-05-06 02:40:00,
2013-05-05 22:50:00,45.1,32.9,30.26,ENE,71,0.0,0.0,62,0.00,,,0.00,WeatherDisplay:10.37,2013-05-06 02:50:00,
2013-05-05 22:59:00,44.8,32.5,30.26,East,92,0.0,0.0,62,0.00,,,0.00,WeatherDisplay:10.37,2013-05-06 02:59:00,
2013-05-05 23:10:00,44.6,32.8,30.25,East,82,0.0,0.0,63,0.00,,,0.00,WeatherDisplay:10.37,2013-05-06 03:10:00,
2013-05-05 23:20:00,44.2,32.8,30.26,ESE,105,0.0,0.0,64,0.00,,,0.00,WeatherDisplay:10.37,2013-05-06 03:20:00,
2013-05-05 23:30:00,43.7,32.3,30.26,ESE,105,0.0,0.0,64,0.00,,,0.00,WeatherDisplay:10.37,2013-05-06 03:30:00,
2013-05-05 23:40:00,43.3,32.4,30.25,ESE,105,0.0,0.0,65,0.00,,,0.00,WeatherDisplay:10.37,2013-05-06 03:40:00,
2013-05-05 23:50:00,42.8,31.9,30.25,ESE,105,0.0,0.0,65,0.00,,,0.00,WeatherDisplay:10.37,2013-05-06 03:50:00,
2013-05-05 23:59:00,42.3,31.3,30.25,ESE,105,0.0,0.0,65,0.00,,,0.00,WeatherDisplay:10.37,2013-05-06 03:59:00,